Time;durP1;ratioP1;P1;durP2;ratioP2;P2;SDS_P1;SDS_P2;PMS_P1;PMS_P2;Temp;Humidity;BMP_temperature;BMP_pressure;BME280_temperature;BME280_humidity;BME280_pressure;Samples;Min_cycle;Max_cycle;Signal;HPM_P1;HPM_P2
2023/01/06 00:02:18;;;;;;;1999.90;999.90;;;9.10;99.90;;;;;;5033011;28;21185;-69
2023/01/06 00:04:46;;;;;;;1999.90;999.90;;;9.10;99.90;;;;;;5034436;28;20554;-69
2023/01/06 00:07:13;;;;;;;1999.90;999.90;;;9.20;99.90;;;;;;5030613;28;20519;-68
2023/01/06 00:09:40;;;;;;;1999.90;999.90;;;9.30;99.90;;;;;;5039068;28;20456;-69
2023/01/06 00:12:08;;;;;;;1999.90;999.90;;;9.30;99.90;;;;;;5042308;28;20528;-69
2023/01/06 00:14:35;;;;;;;1999.90;999.90;;;9.30;99.90;;;;;;5044335;28;20510;-69
2023/01/06 00:17:02;;;;;;;1999.90;999.90;;;9.30;99.90;;;;;;5041541;28;20480;-69
2023/01/06 00:19:28;;;;;;;1999.90;999.90;;;9.40;99.90;;;;;;5029756;28;20969;-69
2023/01/06 00:21:57;;;;;;;1999.90;999.90;;;9.50;99.90;;;;;;5028250;28;20460;-69
2023/01/06 00:24:23;;;;;;;1999.90;999.90;;;9.50;99.90;;;;;;5035796;28;20477;-69
2023/01/06 00:26:50;;;;;;;1999.90;999.90;;;9.50;99.90;;;;;;5033219;28;20544;-69
2023/01/06 00:29:17;;;;;;;1999.90;999.90;;;9.50;99.90;;;;;;5043005;28;20456;-69
2023/01/06 00:31:44;;;;;;;1999.90;999.90;;;9.60;99.90;;;;;;5043743;28;20448;-70
2023/01/06 00:34:11;;;;;;;1999.90;999.90;;;9.60;99.90;;;;;;5037275;28;20540;-69
2023/01/06 00:36:38;;;;;;;1999.90;999.90;;;9.60;99.90;;;;;;5038487;28;20543;-70
2023/01/06 00:39:06;;;;;;;1999.90;999.90;;;9.70;99.90;;;;;;5039625;28;20954;-70
2023/01/06 00:44:17;;;;;;;1999.90;999.90;;;9.60;99.90;;;;;;5038866;28;20476;-70
2023/01/06 00:46:44;;;;;;;1999.90;999.90;;;9.70;99.90;;;;;;5042384;28;20448;-71
2023/01/06 00:49:11;;;;;;;1999.90;999.90;;;9.70;99.90;;;;;;5036746;28;20495;-69
2023/01/06 00:51:40;;;;;;;1999.90;999.90;;;9.70;99.90;;;;;;5038101;28;20488;-69
2023/01/06 00:54:09;;;;;;;1999.90;999.90;;;9.70;99.90;;;;;;5041564;28;20451;-69
2023/01/06 00:56:37;;;;;;;1999.90;999.90;;;9.70;99.90;;;;;;5040994;28;20452;-69
2023/01/06 00:59:04;;;;;;;1999.90;999.90;;;9.70;99.90;;;;;;5035203;28;20523;-69
2023/01/06 01:01:31;;;;;;;1999.90;999.90;;;9.60;99.90;;;;;;5039407;28;20448;-69
2023/01/06 01:03:58;;;;;;;1999.90;999.90;;;9.60;99.90;;;;;;5040652;28;20468;-69
2023/01/06 01:06:25;;;;;;;1999.90;999.90;;;9.50;99.90;;;;;;5030529;28;20456;-69
2023/01/06 01:08:55;;;;;;;1999.90;999.90;;;9.40;99.90;;;;;;5034438;28;20472;-69
2023/01/06 01:14:08;;;;;;;1999.90;999.90;;;9.40;99.90;;;;;;5033052;28;20436;-69
2023/01/06 01:16:35;;;;;;;1999.90;999.90;;;9.40;99.90;;;;;;5033350;28;20445;-68
2023/01/06 01:19:02;;;;;;;1999.90;999.90;;;9.40;99.90;;;;;;5038639;28;20468;-69
2023/01/06 01:21:29;;;;;;;1999.90;999.90;;;9.40;99.90;;;;;;5038940;28;20988;-68
2023/01/06 01:23:56;;;;;;;1999.90;999.90;;;9.30;99.90;;;;;;5040417;28;20491;-69
2023/01/06 01:26:24;;;;;;;1999.90;999.90;;;9.40;99.90;;;;;;5043267;28;20447;-69
2023/01/06 01:28:51;;;;;;;1999.90;999.90;;;9.40;99.90;;;;;;5039974;28;20492;-68
2023/01/06 01:31:19;;;;;;;1999.90;999.90;;;9.30;99.90;;;;;;5033873;28;20456;-69
2023/01/06 01:33:46;;;;;;;1999.90;999.90;;;9.30;99.90;;;;;;5035656;28;20548;-69
2023/01/06 01:36:15;;;;;;;1999.90;999.90;;;9.20;99.90;;;;;;5031489;28;20448;-69
2023/01/06 01:38:42;;;;;;;1999.90;999.90;;;9.20;99.90;;;;;;5037045;28;20492;-69
2023/01/06 01:41:15;;;;;;;1999.90;999.90;;;9.10;99.90;;;;;;5042732;28;20452;-69
2023/01/06 01:43:48;;;;;;;1999.90;999.90;;;9.30;99.90;;;;;;5038132;28;20477;-69
2023/01/06 01:46:18;;;;;;;1999.90;999.90;;;9.30;99.90;;;;;;5041968;28;20446;-69
2023/01/06 01:48:45;;;;;;;1999.90;999.90;;;9.30;99.90;;;;;;5026537;28;20858;-69
2023/01/06 01:51:16;;;;;;;1999.90;999.90;;;9.40;99.90;;;;;;5039939;28;21073;-69
2023/01/06 01:53:47;;;;;;;1999.90;999.90;;;9.40;99.90;;;;;;5038672;28;20440;-68
2023/01/06 01:56:17;;;;;;;1999.90;999.90;;;9.40;99.90;;;;;;5040339;28;20476;-68
2023/01/06 01:58:52;;;;;;;1999.90;999.90;;;9.40;99.90;;;;;;5041741;28;20839;-69
2023/01/06 02:01:19;;;;;;;1999.90;999.90;;;9.40;99.90;;;;;;5037926;28;20457;-68
2023/01/06 02:03:46;;;;;;;1999.90;999.90;;;9.40;99.90;;;;;;5042460;28;20574;-68
2023/01/06 02:06:16;;;;;;;1999.90;999.90;;;9.40;99.90;;;;;;5040028;28;20499;-69
2023/01/06 02:08:47;;;;;;;1999.90;999.90;;;9.50;99.90;;;;;;5040394;28;20472;-68
2023/01/06 02:11:14;;;;;;;1999.90;999.90;;;9.50;99.90;;;;;;5040024;28;20456;-68
2023/01/06 02:13:44;;;;;;;1999.90;999.90;;;9.40;99.90;;;;;;5039070;28;20961;-68
2023/01/06 02:16:19;;;;;;;1999.90;999.90;;;9.30;99.90;;;;;;5025385;28;20514;-68
2023/01/06 02:18:58;;;;;;;1999.90;999.90;;;9.30;99.90;;;;;;5029067;28;20463;-69
2023/01/06 02:21:38;;;;;;;1999.90;999.90;;;9.30;99.90;;;;;;5036164;28;20448;-68
2023/01/06 02:24:46;;;;;;;1999.90;999.90;;;9.30;99.90;;;;;;5035927;28;20526;-69
2023/01/06 02:27:45;;;;;;;1999.90;999.90;;;9.40;99.90;;;;;;5035890;28;20468;-68
2023/01/06 02:30:39;;;;;;;1999.90;999.90;;;9.30;99.90;;;;;;5033263;28;20467;-69
2023/01/06 02:33:16;;;;;;;1999.90;999.90;;;9.40;99.90;;;;;;5036172;28;20441;-69
2023/01/06 02:36:00;;;;;;;1999.90;999.90;;;9.40;99.90;;;;;;5039753;28;20440;-69
2023/01/06 02:38:40;;;;;;;1999.90;999.90;;;9.40;99.90;;;;;;5033911;28;20464;-69
2023/01/06 02:41:13;;;;;;;1999.90;999.90;;;9.40;99.90;;;;;;5039771;28;20859;-68
2023/01/06 02:43:50;;;;;;;1999.90;999.90;;;9.40;99.90;;;;;;5035550;28;20494;-68
2023/01/06 02:46:36;;;;;;;1999.90;999.90;;;9.50;99.90;;;;;;5038753;28;20448;-68
2023/01/06 02:49:12;;;;;;;1999.90;999.90;;;9.60;99.90;;;;;;5039565;28;20463;-67
2023/01/06 02:51:45;;;;;;;1999.90;999.90;;;9.70;99.90;;;;;;5036742;28;20963;-69
2023/01/06 02:54:18;;;;;;;1999.90;999.90;;;9.60;99.90;;;;;;5042341;28;20831;-68
2023/01/06 02:56:48;;;;;;;1999.90;999.90;;;9.50;99.90;;;;;;5030974;28;20484;-68
2023/01/06 02:59:22;;;;;;;1999.90;999.90;;;9.50;99.90;;;;;;5037879;28;20448;-69
2023/01/06 03:01:53;;;;;;;1999.90;999.90;;;9.50;99.90;;;;;;5041814;28;20479;-69
2023/01/06 03:04:26;;;;;;;1999.90;999.90;;;9.40;99.90;;;;;;5039690;28;20488;-69
2023/01/06 03:06:55;;;;;;;1999.90;999.90;;;9.40;99.90;;;;;;5036507;28;20445;-69
2023/01/06 03:09:27;;;;;;;1999.90;999.90;;;9.50;99.90;;;;;;5030944;28;20525;-69
2023/01/06 03:11:54;;;;;;;1999.90;999.90;;;9.50;99.90;;;;;;5040813;28;20464;-69
2023/01/06 03:14:25;;;;;;;1999.90;999.90;;;9.50;99.90;;;;;;5036529;28;20448;-69
2023/01/06 03:16:53;;;;;;;1999.90;999.90;;;9.30;99.90;;;;;;5036314;28;20483;-68
2023/01/06 03:19:21;;;;;;;1999.90;999.90;;;9.20;99.90;;;;;;5039213;28;20450;-68
2023/01/06 03:21:50;;;;;;;1999.90;999.90;;;9.30;99.90;;;;;;5041860;28;20440;-68
2023/01/06 03:24:17;;;;;;;1999.90;999.90;;;9.20;99.90;;;;;;5040253;28;20480;-68
2023/01/06 03:26:46;;;;;;;1999.90;999.90;;;9.10;99.90;;;;;;5043263;28;20453;-68
2023/01/06 03:29:16;;;;;;;1999.90;999.90;;;9.20;99.90;;;;;;5029935;28;20437;-68
2023/01/06 03:31:52;;;;;;;1999.90;999.90;;;9.20;99.90;;;;;;5036840;28;20453;-68
2023/01/06 03:34:28;;;;;;;1999.90;999.90;;;9.20;99.90;;;;;;5036018;28;20445;-68
2023/01/06 03:37:04;;;;;;;1999.90;999.90;;;9.30;99.90;;;;;;5040087;28;20448;-68
2023/01/06 03:39:38;;;;;;;1999.90;999.90;;;9.30;99.90;;;;;;5039923;28;20458;-69
2023/01/06 03:45:16;;;;;;;1999.90;999.90;;;9.30;99.90;;;;;;5033479;28;20501;-69
2023/01/06 03:47:52;;;;;;;1999.90;999.90;;;9.20;99.90;;;;;;5034107;28;20467;-70
2023/01/06 03:50:25;;;;;;;1999.90;999.90;;;9.20;99.90;;;;;;5039210;28;20456;-69
2023/01/06 03:53:03;;;;;;;1999.90;999.90;;;9.00;99.90;;;;;;5031427;28;20445;-68
2023/01/06 03:55:33;;;;;;;1999.90;999.90;;;8.90;99.90;;;;;;5035317;28;20437;-69
2023/01/06 03:58:01;;;;;;;1999.90;999.90;;;8.80;99.90;;;;;;5043891;28;20460;-69
2023/01/06 04:00:31;;;;;;;1999.90;999.90;;;8.70;99.90;;;;;;5041292;28;20912;-69
2023/01/06 04:02:58;;;;;;;1999.90;999.90;;;8.60;99.90;;;;;;5040952;28;20462;-69
2023/01/06 04:05:28;;;;;;;1999.90;999.90;;;8.50;99.90;;;;;;5046218;28;21029;-69
2023/01/06 04:07:56;;;;;;;1999.90;999.90;;;8.40;99.90;;;;;;5039377;28;21846;-69
2023/01/06 04:10:23;;;;;;;1999.90;999.90;;;8.30;99.90;;;;;;5041432;28;20482;-69
2023/01/06 04:12:49;;;;;;;1999.90;999.90;;;8.20;99.90;;;;;;5038965;28;20554;-69
2023/01/06 04:15:18;;;;;;;1999.90;999.90;;;8.10;99.90;;;;;;5042286;28;20839;-69
2023/01/06 04:17:46;;;;;;;1999.90;999.90;;;8.00;99.90;;;;;;5031377;28;20461;-68
2023/01/06 04:20:15;;;;;;;1999.90;999.90;;;8.10;99.90;;;;;;5046109;28;20845;-70
2023/01/06 04:22:43;;;;;;;1999.90;999.90;;;8.10;99.90;;;;;;5045481;28;20457;-69
2023/01/06 04:25:10;;;;;;;1999.90;999.90;;;8.00;99.90;;;;;;5034999;28;20503;-68
2023/01/06 04:27:37;;;;;;;1999.90;999.90;;;8.00;99.90;;;;;;5035718;28;20472;-68
2023/01/06 04:30:04;;;;;;;1999.90;999.90;;;8.00;99.90;;;;;;5040353;28;20455;-68
2023/01/06 04:32:31;;;;;;;1999.90;999.90;;;8.00;99.90;;;;;;5036740;28;20449;-68
2023/01/06 04:34:58;;;;;;;1999.90;999.90;;;8.10;99.90;;;;;;5045012;28;20440;-68
2023/01/06 04:37:25;;;;;;;1999.90;999.90;;;8.00;99.90;;;;;;5046852;28;20472;-67
2023/01/06 04:39:53;;;;;;;1999.90;999.90;;;8.00;99.90;;;;;;5038487;28;20452;-68
2023/01/06 04:42:19;;;;;;;1999.90;999.90;;;7.90;99.90;;;;;;5046902;28;20459;-68
2023/01/06 04:44:46;;;;;;;1999.90;999.90;;;7.90;99.90;;;;;;5044697;28;20849;-68
2023/01/06 04:47:13;;;;;;;1999.90;999.90;;;8.00;99.90;;;;;;5037554;28;20469;-68
2023/01/06 04:49:40;;;;;;;1999.90;999.90;;;7.90;99.90;;;;;;5026957;28;21339;-68
2023/01/06 04:52:07;;;;;;;1999.90;999.90;;;8.00;99.90;;;;;;5037222;28;21256;-69
2023/01/06 04:54:34;;;;;;;1999.90;999.90;;;7.90;99.90;;;;;;5035740;28;20511;-69
2023/01/06 04:57:02;;;;;;;1999.90;999.90;;;8.10;99.90;;;;;;5033527;28;20444;-68
2023/01/06 04:59:29;;;;;;;1999.90;999.90;;;8.00;99.90;;;;;;5042318;28;20451;-68
2023/01/06 05:01:56;;;;;;;1999.90;999.90;;;8.00;99.90;;;;;;5040448;28;20445;-69
2023/01/06 05:04:23;;;;;;;1999.90;999.90;;;8.10;99.90;;;;;;5031140;28;20568;-68
2023/01/06 05:06:50;;;;;;;1999.90;999.90;;;8.20;99.90;;;;;;5033356;28;20448;-68
2023/01/06 05:09:16;;;;;;;1999.90;999.90;;;8.40;99.90;;;;;;5038713;28;20490;-68
2023/01/06 05:11:43;;;;;;;1999.90;999.90;;;8.40;99.90;;;;;;5039509;28;20451;-68
2023/01/06 05:14:11;;;;;;;1999.90;999.90;;;8.40;99.90;;;;;;5031074;28;20445;-68
2023/01/06 05:16:38;;;;;;;1999.90;999.90;;;8.40;99.90;;;;;;5033682;28;20453;-68
2023/01/06 05:19:05;;;;;;;1999.90;999.90;;;8.40;99.90;;;;;;5040946;28;21414;-68
2023/01/06 05:21:32;;;;;;;1999.90;999.90;;;8.50;99.90;;;;;;5040010;28;20445;-68
2023/01/06 05:23:58;;;;;;;1999.90;999.90;;;8.50;99.90;;;;;;5039547;28;20445;-68
2023/01/06 05:26:27;;;;;;;1999.90;999.90;;;8.60;99.90;;;;;;5038346;28;20488;-69
2023/01/06 05:28:54;;;;;;;1999.90;999.90;;;8.70;99.90;;;;;;5036154;28;20469;-68
2023/01/06 05:31:23;;;;;;;1999.90;999.90;;;8.80;99.90;;;;;;5040965;28;20445;-68
2023/01/06 05:33:50;;;;;;;1999.90;999.90;;;8.80;99.90;;;;;;5042416;28;20804;-69
2023/01/06 05:36:18;;;;;;;1999.90;999.90;;;8.70;99.90;;;;;;5042997;28;20447;-68
2023/01/06 05:38:50;;;;;;;1999.90;999.90;;;8.80;99.90;;;;;;5035695;28;21032;-68
2023/01/06 05:41:17;;;;;;;1999.90;999.90;;;8.90;99.90;;;;;;5034815;28;20444;-68
2023/01/06 05:43:44;;;;;;;1999.90;999.90;;;8.90;99.90;;;;;;5040695;28;20448;-69
2023/01/06 05:46:12;;;;;;;1999.90;999.90;;;9.10;99.90;;;;;;5040474;28;20487;-68
2023/01/06 05:48:41;;;;;;;1999.90;999.90;;;9.10;99.90;;;;;;5035091;28;20855;-68
2023/01/06 05:51:09;;;;;;;1999.90;999.90;;;9.10;99.90;;;;;;5040633;28;20446;-69
2023/01/06 05:53:39;;;;;;;1999.90;999.90;;;9.10;99.90;;;;;;5040088;28;20452;-70
2023/01/06 05:56:07;;;;;;;1999.90;999.90;;;9.10;99.90;;;;;;5035594;28;20441;-69
2023/01/06 05:58:35;;;;;;;1999.90;999.90;;;9.10;99.90;;;;;;5030034;28;20473;-69
2023/01/06 06:01:03;;;;;;;1999.90;999.90;;;9.10;99.90;;;;;;5035572;28;20467;-69
2023/01/06 06:03:30;;;;;;;1999.90;999.90;;;9.10;99.90;;;;;;5039837;28;20828;-69
2023/01/06 06:06:02;;;;;;;1999.90;999.90;;;9.10;99.90;;;;;;5032281;28;20483;-68
2023/01/06 06:08:29;;;;;;;1999.90;999.90;;;9.10;99.90;;;;;;5041431;28;20472;-68
2023/01/06 06:10:56;;;;;;;1999.90;999.90;;;9.10;99.90;;;;;;5042466;28;20484;-69
2023/01/06 06:13:22;;;;;;;1999.90;999.90;;;9.20;99.90;;;;;;5039306;28;20459;-69
2023/01/06 06:15:49;;;;;;;1999.90;999.90;;;9.20;99.90;;;;;;5033423;28;20453;-68
2023/01/06 06:18:16;;;;;;;1999.90;999.90;;;9.10;99.90;;;;;;5036007;28;20461;-69
2023/01/06 06:20:43;;;;;;;1999.90;999.90;;;9.10;99.90;;;;;;5036337;28;21129;-68
2023/01/06 06:23:11;;;;;;;1999.90;999.90;;;9.20;99.90;;;;;;5032038;28;20457;-69
2023/01/06 06:25:38;;;;;;;1999.90;999.90;;;9.20;99.90;;;;;;5039018;28;20485;-69
2023/01/06 06:28:04;;;;;;;1999.90;999.90;;;9.20;99.90;;;;;;5040356;28;20468;-69
2023/01/06 06:30:31;;;;;;;1999.90;999.90;;;9.20;99.90;;;;;;5036138;28;20452;-69
2023/01/06 06:32:58;;;;;;;1999.90;999.90;;;9.20;99.90;;;;;;5036276;28;20824;-70
2023/01/06 06:35:25;;;;;;;1999.90;999.90;;;9.20;99.90;;;;;;5033757;28;20452;-69
2023/01/06 06:37:53;;;;;;;1999.90;999.90;;;9.20;99.90;;;;;;5038181;28;20491;-68
2023/01/06 06:40:21;;;;;;;1999.90;999.90;;;9.30;99.90;;;;;;5035702;28;20911;-68
2023/01/06 06:42:51;;;;;;;1999.90;999.90;;;9.40;99.90;;;;;;5043417;28;20444;-67
2023/01/06 06:45:18;;;;;;;1999.90;999.90;;;9.40;99.90;;;;;;5032702;28;20476;-68
2023/01/06 06:47:45;;;;;;;1999.90;999.90;;;9.40;99.90;;;;;;5034950;28;20472;-68
2023/01/06 06:50:12;;;;;;;1999.90;999.90;;;9.40;99.90;;;;;;5031306;28;20456;-68
2023/01/06 06:52:39;;;;;;;1999.90;999.90;;;9.40;99.90;;;;;;5038123;28;20444;-68
2023/01/06 06:55:06;;;;;;;1999.90;999.90;;;9.50;99.90;;;;;;5031351;28;20445;-68
2023/01/06 06:57:35;;;;;;;1999.90;999.90;;;9.50;99.90;;;;;;5037168;28;20471;-68
2023/01/06 07:00:02;;;;;;;1999.90;999.90;;;9.60;99.90;;;;;;5038690;28;20456;-69
2023/01/06 07:02:28;;;;;;;1999.90;999.90;;;9.60;99.90;;;;;;5032202;28;20953;-69
2023/01/06 07:04:55;;;;;;;1999.90;999.90;;;9.60;99.90;;;;;;5039827;28;21025;-69
2023/01/06 07:07:22;;;;;;;1999.90;999.90;;;9.60;99.90;;;;;;5038416;28;20472;-68
2023/01/06 07:09:49;;;;;;;1999.90;999.90;;;9.60;99.90;;;;;;5039184;28;20539;-68
2023/01/06 07:12:16;;;;;;;1999.90;999.90;;;9.70;99.90;;;;;;5039454;28;20445;-68
2023/01/06 07:14:44;;;;;;;1999.90;999.90;;;9.70;99.90;;;;;;5038374;28;20452;-68
2023/01/06 07:17:10;;;;;;;1999.90;999.90;;;9.60;99.90;;;;;;5041164;28;20467;-69
2023/01/06 07:19:37;;;;;;;1999.90;999.90;;;9.70;99.90;;;;;;5031807;28;21026;-70
2023/01/06 07:22:04;;;;;;;1999.90;999.90;;;9.60;99.90;;;;;;5031111;28;20913;-69
2023/01/06 07:24:30;;;;;;;1999.90;999.90;;;9.60;99.90;;;;;;5037594;28;20453;-68
2023/01/06 07:26:57;;;;;;;1999.90;999.90;;;9.50;99.90;;;;;;5038794;28;20480;-70
2023/01/06 07:29:24;;;;;;;1999.90;999.90;;;9.60;99.90;;;;;;5042064;28;20453;-69
2023/01/06 07:31:52;;;;;;;1999.90;999.90;;;9.60;99.90;;;;;;5041445;28;20455;-69
2023/01/06 07:34:19;;;;;;;1999.90;999.90;;;9.60;99.90;;;;;;5040963;28;21185;-69
2023/01/06 07:36:45;;;;;;;1999.90;999.90;;;9.70;99.90;;;;;;5032590;28;20444;-69
2023/01/06 07:39:12;;;;;;;1999.90;999.90;;;9.80;99.90;;;;;;5035314;28;20487;-69
2023/01/06 07:41:39;;;;;;;1999.90;999.90;;;9.70;99.90;;;;;;5042438;28;20455;-69
2023/01/06 07:44:06;;;;;;;1999.90;999.90;;;9.70;99.90;;;;;;5039321;28;20946;-69
2023/01/06 07:46:32;;;;;;;1999.90;999.90;;;9.70;99.90;;;;;;5040219;28;20484;-69
2023/01/06 07:49:00;;;;;;;1999.90;999.90;;;9.80;99.90;;;;;;5045149;28;20476;-69
2023/01/06 07:51:27;;;;;;;1999.90;999.90;;;9.80;99.90;;;;;;5039682;28;20456;-69
2023/01/06 07:53:54;;;;;;;1999.90;999.90;;;9.80;99.90;;;;;;5042996;28;20451;-69
2023/01/06 07:56:22;;;;;;;1999.90;999.90;;;9.80;99.90;;;;;;5045708;28;20448;-69
2023/01/06 07:58:49;;;;;;;1999.90;999.90;;;9.70;99.90;;;;;;5042595;28;20549;-68
2023/01/06 08:01:16;;;;;;;1999.90;999.90;;;9.80;99.90;;;;;;5032245;28;20957;-69
2023/01/06 08:03:43;;;;;;;1999.90;999.90;;;9.80;99.90;;;;;;5036181;28;20951;-69
2023/01/06 08:06:12;;;;;;;1999.90;999.90;;;9.90;99.90;;;;;;5043406;28;20480;-68
2023/01/06 08:08:40;;;;;;;1999.90;999.90;;;9.80;99.90;;;;;;5044882;28;20502;-68
2023/01/06 08:11:10;;;;;;;1999.90;999.90;;;9.80;99.90;;;;;;5035641;28;20457;-70
2023/01/06 08:13:37;;;;;;;1999.90;999.90;;;9.70;99.90;;;;;;5037856;28;20444;-69
2023/01/06 08:16:05;;;;;;;1999.90;999.90;;;9.60;99.90;;;;;;5044678;28;20456;-69
2023/01/06 08:18:32;;;;;;;1999.90;999.90;;;9.60;99.90;;;;;;5041938;28;20480;-68
2023/01/06 08:21:02;;;;;;;1999.90;999.90;;;9.50;99.90;;;;;;5042218;28;20447;-68
2023/01/06 08:23:31;;;;;;;1999.90;999.90;;;9.40;99.90;;;;;;5036643;28;20451;-68
2023/01/06 08:26:05;;;;;;;1999.90;999.90;;;9.40;99.90;;;;;;5043431;28;20477;-68
2023/01/06 08:28:32;;;;;;;1999.90;999.90;;;9.40;99.90;;;;;;5043908;28;20464;-68
2023/01/06 08:30:59;;;;;;;1999.90;999.90;;;9.40;99.90;;;;;;5041113;28;21100;-68
2023/01/06 08:33:27;;;;;;;1999.90;999.90;;;9.40;99.90;;;;;;5032213;28;20459;-68
2023/01/06 08:35:58;;;;;;;1999.90;999.90;;;9.40;99.90;;;;;;5032677;28;20445;-68
2023/01/06 08:38:25;;;;;;;1999.90;999.90;;;9.40;99.90;;;;;;5026455;28;20467;-69
2023/01/06 08:40:53;;;;;;;1999.90;999.90;;;9.40;99.90;;;;;;5040781;28;20459;-68
2023/01/06 08:43:20;;;;;;;1999.90;999.90;;;9.40;99.90;;;;;;5032720;28;20453;-68
2023/01/06 08:45:47;;;;;;;1999.90;999.90;;;9.40;99.90;;;;;;5031817;28;20479;-68
2023/01/06 08:48:14;;;;;;;1999.90;999.90;;;9.50;99.90;;;;;;5040834;28;20475;-68
2023/01/06 08:50:42;;;;;;;1999.90;999.90;;;9.50;99.90;;;;;;5037952;28;20449;-68
2023/01/06 08:53:09;;;;;;;1999.90;999.90;;;9.50;99.90;;;;;;5035628;28;20446;-68
2023/01/06 08:55:38;;;;;;;1999.90;999.90;;;9.60;99.90;;;;;;5037512;28;20452;-68
2023/01/06 08:58:08;;;;;;;1999.90;999.90;;;9.60;99.90;;;;;;5039398;28;20460;-67
2023/01/06 09:00:35;;;;;;;1999.90;999.90;;;9.60;99.90;;;;;;5028575;28;20946;-68
2023/01/06 09:03:02;;;;;;;1999.90;999.90;;;9.60;99.90;;;;;;5036919;28;20445;-69
2023/01/06 09:05:28;;;;;;;1999.90;999.90;;;9.60;99.90;;;;;;5040614;28;20448;-69
2023/01/06 09:07:55;;;;;;;1999.90;999.90;;;9.70;99.90;;;;;;5037675;28;20484;-69
2023/01/06 09:10:22;;;;;;;1999.90;999.90;;;9.70;99.90;;;;;;5045204;28;20460;-69
2023/01/06 09:12:49;;;;;;;1999.90;999.90;;;9.80;99.90;;;;;;5037500;28;20781;-69
2023/01/06 09:15:18;;;;;;;1999.90;999.90;;;9.90;99.90;;;;;;5036958;28;20456;-69
2023/01/06 09:17:44;;;;;;;1999.90;999.90;;;9.90;99.90;;;;;;5040376;28;20471;-69
2023/01/06 09:20:11;;;;;;;1999.90;999.90;;;10.00;99.90;;;;;;5032917;28;20456;-68
2023/01/06 09:22:38;;;;;;;1999.90;999.90;;;10.10;99.90;;;;;;5035918;28;20452;-68
2023/01/06 09:25:05;;;;;;;1999.90;999.90;;;10.10;99.90;;;;;;5027235;28;20448;-70
2023/01/06 09:27:32;;;;;;;1999.90;999.90;;;10.30;99.90;;;;;;5042383;28;20495;-69
2023/01/06 09:29:59;;;;;;;1999.90;999.90;;;10.40;99.90;;;;;;5040170;28;20453;-68
2023/01/06 09:32:27;;;;;;;1999.90;999.90;;;10.40;99.90;;;;;;5033276;28;20452;-69
2023/01/06 09:34:54;;;;;;;1999.90;999.90;;;10.50;99.90;;;;;;5039943;28;20454;-68
2023/01/06 09:37:21;;;;;;;1999.90;999.90;;;10.60;99.90;;;;;;5036957;28;20465;-68
2023/01/06 09:39:47;;;;;;;1999.90;999.90;;;10.70;99.90;;;;;;5037493;28;20984;-69
2023/01/06 09:42:42;;;;;;;1999.90;999.90;;;10.80;99.90;;;;;;5042659;28;20996;-69
2023/01/06 09:45:15;;;;;;;1999.90;999.90;;;10.90;99.90;;;;;;5037092;28;20448;-70
2023/01/06 09:47:48;;;;;;;1999.90;999.90;;;11.00;99.90;;;;;;5038304;28;21096;-70
2023/01/06 09:50:21;;;;;;;1999.90;999.90;;;11.20;99.90;;;;;;5038666;28;20452;-70
2023/01/06 09:52:52;;;;;;;1999.90;999.90;;;11.30;99.90;;;;;;5036920;28;20538;-70
2023/01/06 09:55:23;;;;;;;1999.90;999.90;;;11.60;99.90;;;;;;5030754;28;20456;-70
2023/01/06 09:57:55;;;;;;;1999.90;999.90;;;11.90;99.90;;;;;;5032146;28;20488;-69
2023/01/06 10:00:32;;;;;;;1999.90;999.90;;;12.00;99.90;;;;;;5035584;28;20444;-69
2023/01/06 10:03:00;;;;;;;1999.90;999.90;;;12.20;99.90;;;;;;5043532;28;20436;-70
2023/01/06 10:05:36;;;;;;;1999.90;999.90;;;12.10;99.90;;;;;;5040228;28;20449;-70
2023/01/06 10:08:12;;;;;;;1999.90;999.90;;;12.10;99.90;;;;;;5036735;28;20997;-69
2023/01/06 10:10:49;;;;;;;1999.90;999.90;;;12.10;99.90;;;;;;5042591;28;20911;-69
2023/01/06 10:13:29;;;;;;;1999.90;999.90;;;12.00;99.90;;;;;;5033969;28;20449;-70
2023/01/06 10:16:06;;;;;;;1999.90;999.90;;;11.90;99.90;;;;;;5038974;28;20436;-69
2023/01/06 10:18:45;;;;;;;1999.90;999.90;;;11.80;99.90;;;;;;5038120;28;20471;-69
2023/01/06 10:21:22;;;;;;;1999.90;999.90;;;11.90;99.90;;;;;;5025641;28;20459;-70
2023/01/06 10:24:13;;;;;;;1999.90;999.90;;;12.10;99.90;;;;;;5039097;28;20451;-69
2023/01/06 10:26:43;;;;;;;1999.90;999.90;;;12.30;99.90;;;;;;5023669;28;20484;-70
2023/01/06 10:29:14;;;;;;;1999.90;999.90;;;12.90;99.90;;;;;;5030956;28;20476;-70
2023/01/06 10:31:53;;;;;;;1999.90;999.90;;;13.60;99.90;;;;;;5034944;28;20459;-70
2023/01/06 10:34:23;;;;;;;1999.90;999.90;;;14.10;99.90;;;;;;5037850;28;20455;-70
2023/01/06 10:36:56;;;;;;;1999.90;999.90;;;14.40;99.90;;;;;;5035330;28;20451;-70
2023/01/06 10:39:27;;;;;;;1999.90;999.90;;;14.20;99.90;;;;;;5035866;28;20471;-70
2023/01/06 10:44:48;;;;;;;1999.90;999.90;;;13.70;99.90;;;;;;5004494;28;20478;-70
2023/01/06 10:47:26;;;;;;;1999.90;999.90;;;13.50;99.90;;;;;;5031816;28;20501;-68
2023/01/06 10:49:54;;;;;;;1999.90;999.90;;;13.30;99.90;;;;;;5027760;28;20444;-70
2023/01/06 10:52:24;;;;;;;1999.90;999.90;;;13.00;99.90;;;;;;5030749;28;20468;-69
2023/01/06 10:54:54;;;;;;;1999.90;999.90;;;12.90;99.90;;;;;;5030624;28;20444;-70
2023/01/06 10:57:25;;;;;;;1999.90;999.90;;;12.90;99.90;;;;;;5030843;28;20552;-70
2023/01/06 11:00:19;;;;;;;1999.90;999.90;;;13.00;99.90;;;;;;5030621;28;20455;-70
2023/01/06 11:02:47;;;;;;;1999.90;999.90;;;13.20;99.90;;;;;;5020632;28;20469;-69
2023/01/06 11:05:18;;;;;;;1999.90;999.90;;;13.50;99.90;;;;;;5026633;28;20441;-69
2023/01/06 11:07:53;;;;;;;1999.90;999.90;;;13.80;99.90;;;;;;5029020;28;20874;-69
2023/01/06 11:10:37;;;;;;;1999.90;999.90;;;14.00;99.90;;;;;;5023653;28;20655;-69
2023/01/06 11:13:06;;;;;;;1999.90;999.90;;;14.20;99.90;;;;;;5025604;28;20802;-69
2023/01/06 11:15:39;;;;;;;1999.90;999.90;;;14.20;99.90;;;;;;5023253;28;20453;-69
2023/01/06 11:18:19;;;;;;;1999.90;999.90;;;14.00;99.90;;;;;;5020955;28;20993;-69
2023/01/06 11:21:02;;;;;;;1999.90;999.90;;;13.90;99.90;;;;;;5029473;28;20463;-68
2023/01/06 11:23:29;;;;;;;1999.90;999.90;;;13.50;99.90;;;;;;5022425;28;20448;-69
2023/01/06 11:26:06;;;;;;;1999.90;999.90;;;13.40;99.90;;;;;;5024638;28;20441;-69
2023/01/06 11:28:33;;;;;;;1999.90;999.90;;;13.30;99.90;;;;;;5027833;28;20481;-69
2023/01/06 11:31:03;;;;;;;1999.90;999.90;;;13.20;99.90;;;;;;5035581;28;21005;-69
2023/01/06 11:33:32;;;;;;;1999.90;999.90;;;13.30;99.90;;;;;;5029032;28;20449;-70
2023/01/06 11:36:08;;;;;;;1999.90;999.90;;;13.20;99.90;;;;;;5023535;28;20868;-69
2023/01/06 11:38:42;;;;;;;1999.90;999.90;;;13.20;99.90;;;;;;5025630;28;21238;-70
2023/01/06 11:41:10;;;;;;;1999.90;999.90;;;13.20;99.90;;;;;;5023673;28;20506;-69
2023/01/06 11:43:38;;;;;;;1999.90;999.90;;;13.40;99.90;;;;;;5022262;28;20453;-69
2023/01/06 11:46:07;;;;;;;1999.90;999.90;;;13.40;99.90;;;;;;5023908;28;20460;-69
2023/01/06 11:48:37;;;;;;;1999.90;999.90;;;13.40;99.90;;;;;;5026057;28;20475;-68
2023/01/06 11:51:07;;;;;;;1999.90;999.90;;;13.30;99.90;;;;;;5024840;28;20516;-71
2023/01/06 11:53:35;;;;;;;1999.90;999.90;;;13.10;99.90;;;;;;5027601;28;20463;-69
2023/01/06 11:56:03;;;;;;;1999.90;999.90;;;13.10;99.90;;;;;;5025723;28;20456;-70
2023/01/06 11:58:45;;;;;;;1999.90;999.90;;;13.00;99.90;;;;;;5025564;28;20907;-69
2023/01/06 12:01:17;;;;;;;1999.90;999.90;;;12.90;99.90;;;;;;5024139;28;20468;-69
2023/01/06 12:03:45;;;;;;;1999.90;999.90;;;12.90;99.90;;;;;;5025739;28;20455;-69
2023/01/06 12:06:24;;;;;;;1999.90;999.90;;;12.80;99.90;;;;;;5025279;28;20460;-70
2023/01/06 12:08:56;;;;;;;1999.90;999.90;;;12.80;99.90;;;;;;5028350;28;20483;-70
2023/01/06 12:11:34;;;;;;;1999.90;999.90;;;12.80;99.90;;;;;;5024725;28;20440;-70
2023/01/06 12:14:01;;;;;;;1999.90;999.90;;;12.70;99.90;;;;;;5027121;28;20452;-70
2023/01/06 12:16:35;;;;;;;1999.90;999.90;;;12.60;99.90;;;;;;5034405;28;20443;-70
2023/01/06 12:19:10;;;;;;;1999.90;999.90;;;12.50;99.90;;;;;;5036937;28;20547;-70
2023/01/06 12:21:38;;;;;;;1999.90;999.90;;;12.50;99.90;;;;;;5035676;28;20443;-70
2023/01/06 12:24:09;;;;;;;1999.90;999.90;;;12.40;99.90;;;;;;5027781;28;20449;-70
2023/01/06 12:26:37;;;;;;;1999.90;999.90;;;12.40;99.90;;;;;;5036050;28;20485;-69
2023/01/06 12:29:06;;;;;;;1999.90;999.90;;;12.30;99.90;;;;;;5027707;28;21029;-69
2023/01/06 12:31:45;;;;;;;1999.90;999.90;;;12.40;99.90;;;;;;5029667;28;20448;-69